createdAt,value
2019-04-04T00:01:01.891Z,22.70
2019-04-04T00:03:33.386Z,19.05
2019-04-04T00:06:04.634Z,19.83
2019-04-04T00:08:36.124Z,23.07
2019-04-04T00:11:07.673Z,24.10
2019-04-04T00:13:40.082Z,18.85
2019-04-04T00:16:12.121Z,17.95
2019-04-04T00:18:43.408Z,23.20
2019-04-04T00:21:14.725Z,22.33
2019-04-04T00:23:46.216Z,21.10
2019-04-04T00:26:21.075Z,30.77
2019-04-04T00:28:52.371Z,19.98
2019-04-04T00:31:23.639Z,26.93
2019-04-04T00:33:55.841Z,23.05
2019-04-04T00:36:27.741Z,22.07
2019-04-04T00:38:59.165Z,23.40
2019-04-04T00:41:32.025Z,22.45
2019-04-04T00:44:04.799Z,24.35
2019-04-04T00:46:37.171Z,18.92
2019-04-04T00:49:08.490Z,23.30
2019-04-04T00:51:39.789Z,28.27
2019-04-04T00:54:12.065Z,21.52
2019-04-04T00:56:44.140Z,27.30
2019-04-04T00:59:15.558Z,23.92
2019-04-04T01:01:46.747Z,21.10
2019-04-04T01:04:18.064Z,25.53
2019-04-04T01:06:49.396Z,25.73
2019-04-04T01:09:20.819Z,24.82
2019-04-04T01:11:52.427Z,27.32
2019-04-04T01:14:23.751Z,27.70
2019-04-04T01:16:55.213Z,26.07
2019-04-04T01:19:26.795Z,24.83
2019-04-04T01:21:58.083Z,23.25
2019-04-04T01:24:30.403Z,29.55
2019-04-04T01:27:01.909Z,30.08
2019-04-04T01:29:33.221Z,29.05
2019-04-04T01:32:04.605Z,22.10
2019-04-04T01:34:35.993Z,21.37
2019-04-04T01:37:07.428Z,28.23
2019-04-04T01:39:38.840Z,25.10
2019-04-04T01:42:10.297Z,24.67
2019-04-04T01:44:42.192Z,25.27
2019-04-04T01:47:14.965Z,23.07
2019-04-04T01:49:47.267Z,26.05
2019-04-04T01:52:18.666Z,23.92
2019-04-04T01:54:50.066Z,26.27
2019-04-04T01:57:21.436Z,24.45
2019-04-04T01:59:52.867Z,29.00
2019-04-04T02:02:24.406Z,22.13
2019-04-04T02:04:55.876Z,28.90
2019-04-04T02:07:29.540Z,26.12
2019-04-04T02:10:00.768Z,23.25
2019-04-04T02:12:33.527Z,25.53
2019-04-04T02:15:05.766Z,27.48
2019-04-04T02:17:37.135Z,27.70
2019-04-04T02:20:08.360Z,24.73
2019-04-04T02:22:40.299Z,29.57
2019-04-04T02:25:12.008Z,25.10
2019-04-04T02:27:43.278Z,28.42
2019-04-04T02:30:16.465Z,24.33
2019-04-04T02:32:48.835Z,29.77
2019-04-04T02:35:20.244Z,27.70
2019-04-04T02:37:55.055Z,28.20
2019-04-04T02:40:25.600Z,27.67
2019-04-04T02:42:57.072Z,29.48
2019-04-04T02:45:28.371Z,28.52
2019-04-04T02:47:59.699Z,26.13
2019-04-04T02:50:34.502Z,33.27
2019-04-04T02:53:04.496Z,27.57
2019-04-04T02:55:36.025Z,27.90
2019-04-04T02:58:07.434Z,31.30
2019-04-04T03:00:38.817Z,27.80
2019-04-04T03:03:10.239Z,28.60
2019-04-04T03:05:43.867Z,24.67
2019-04-04T03:08:15.207Z,29.27
2019-04-04T03:10:49.218Z,29.00
2019-04-04T03:13:19.525Z,25.17
2019-04-04T03:15:50.834Z,28.10
2019-04-04T03:18:22.566Z,27.60
2019-04-04T03:20:55.538Z,29.90
2019-04-04T03:23:26.935Z,23.90
2019-04-04T03:25:58.164Z,26.83
2019-04-04T03:28:31.842Z,27.53
2019-04-04T03:31:03.771Z,24.95
2019-04-04T03:33:35.723Z,27.43
2019-04-04T03:36:07.032Z,26.97
2019-04-04T03:38:38.360Z,27.03
2019-04-04T03:41:09.757Z,24.87
2019-04-04T03:43:41.196Z,31.40
2019-04-04T03:46:12.486Z,27.47
2019-04-04T03:48:43.785Z,25.72
2019-04-04T03:51:15.209Z,33.63
2019-04-04T03:53:52.658Z,32.63
2019-04-04T03:56:23.940Z,27.37
2019-04-04T03:58:55.230Z,27.33
2019-04-04T04:01:26.502Z,31.47
2019-04-04T04:03:59.640Z,31.13
2019-04-04T04:06:32.907Z,25.43
2019-04-04T04:09:13.677Z,32.47
2019-04-04T04:11:45.037Z,28.83
2019-04-04T04:14:16.309Z,31.33
2019-04-04T04:16:47.685Z,28.70
2019-04-04T04:19:18.951Z,27.57
2019-04-04T04:21:50.238Z,26.00
2019-04-04T04:24:21.578Z,30.97
2019-04-04T04:26:52.893Z,25.23
2019-04-04T04:29:24.275Z,30.00
2019-04-04T04:31:55.577Z,26.25
2019-04-04T04:34:26.820Z,30.90
2019-04-04T04:36:58.168Z,27.43
2019-04-04T04:39:29.619Z,24.17
2019-04-04T04:42:01.022Z,28.30
2019-04-04T04:44:32.417Z,30.67
2019-04-04T04:47:03.793Z,27.58
2019-04-04T04:49:35.620Z,28.73
2019-04-04T04:52:07.615Z,33.63
2019-04-04T04:54:38.986Z,26.97
2019-04-04T04:57:17.537Z,26.12
2019-04-04T04:59:44.579Z,30.83
2019-04-04T05:02:16.391Z,27.87
2019-04-04T05:04:49.629Z,32.83
2019-04-04T05:07:20.919Z,35.43
2019-04-04T05:09:52.277Z,35.97
2019-04-04T05:12:23.669Z,38.07
2019-04-04T05:14:55.420Z,29.53
2019-04-04T05:17:27.725Z,29.50
2019-04-04T05:19:59.071Z,27.30
2019-04-04T05:22:30.812Z,29.32
2019-04-04T05:25:08.298Z,30.82
2019-04-04T05:27:37.243Z,24.77
2019-04-04T05:30:09.212Z,30.47
2019-04-04T05:32:41.636Z,26.23
2019-04-04T05:35:15.118Z,24.43
2019-04-04T05:37:45.806Z,32.95
2019-04-04T05:40:17.190Z,25.40
2019-04-04T05:42:48.450Z,29.27
2019-04-04T05:45:19.847Z,26.12
2019-04-04T05:47:51.248Z,29.42
2019-04-04T05:50:22.588Z,23.47
2019-04-04T05:52:53.968Z,30.97
2019-04-04T05:55:25.185Z,28.15
2019-04-04T05:57:56.479Z,33.30
2019-04-04T06:00:28.218Z,29.60
2019-04-04T06:02:59.978Z,27.17
2019-04-04T06:05:31.879Z,35.92
2019-04-04T06:08:03.299Z,26.20
2019-04-04T06:10:34.957Z,39.13
2019-04-04T06:13:06.451Z,32.25
2019-04-04T06:15:38.213Z,30.92
2019-04-04T06:18:11.807Z,23.45
2019-04-04T06:20:43.378Z,32.58
2019-04-04T06:23:14.721Z,38.88
2019-04-04T06:25:46.066Z,30.48
2019-04-04T06:28:17.422Z,32.45
2019-04-04T06:30:48.870Z,36.28
2019-04-04T06:33:20.194Z,33.15
2019-04-04T06:35:51.525Z,39.07
2019-04-04T06:38:24.015Z,31.97
2019-04-04T06:40:56.308Z,32.38
2019-04-04T06:43:27.685Z,31.27
2019-04-04T06:45:59.164Z,29.63
2019-04-04T06:48:33.524Z,36.50
2019-04-04T06:51:03.376Z,30.00
2019-04-04T06:53:35.285Z,30.77
2019-04-04T06:56:06.614Z,32.55
2019-04-04T06:58:40.217Z,27.58
2019-04-04T07:01:11.990Z,23.07
2019-04-04T07:03:43.407Z,29.92
2019-04-04T07:06:14.947Z,31.45
2019-04-04T07:08:47.178Z,26.77
2019-04-04T07:11:21.581Z,21.37
2019-04-04T07:13:51.508Z,26.05
2019-04-04T07:16:22.835Z,24.52
2019-04-04T07:18:54.223Z,24.52
2019-04-04T07:21:25.582Z,25.88
2019-04-04T07:23:58.960Z,30.65
2019-04-04T07:26:29.967Z,28.85
2019-04-04T07:29:02.933Z,27.00
2019-04-04T07:31:38.030Z,25.65
2019-04-04T07:34:07.468Z,26.87
2019-04-04T07:36:38.688Z,29.65
2019-04-04T07:39:12.221Z,35.45
2019-04-04T07:41:45.051Z,32.17
2019-04-04T07:44:16.439Z,28.07
2019-04-04T07:46:47.750Z,22.82
2019-04-04T07:49:19.126Z,30.48
2019-04-04T07:51:50.513Z,24.95
2019-04-04T07:54:22.480Z,28.10
2019-04-04T07:56:53.777Z,38.02
2019-04-04T07:59:25.120Z,26.25
2019-04-04T08:01:56.549Z,25.10
2019-04-04T08:04:27.894Z,27.13
2019-04-04T08:06:59.233Z,25.27
2019-04-04T08:09:30.579Z,27.15
2019-04-04T08:12:01.943Z,25.85
2019-04-04T08:14:33.260Z,23.50
2019-04-04T08:17:04.576Z,26.93
2019-04-04T08:19:36.781Z,29.52
2019-04-04T08:22:09.137Z,35.50
2019-04-04T08:24:40.645Z,32.35
2019-04-04T08:27:12.897Z,47.73
2019-04-04T08:29:44.501Z,40.60
2019-04-04T08:32:15.854Z,31.75
2019-04-04T08:34:47.278Z,35.60
2019-04-04T08:37:18.594Z,39.33
2019-04-04T08:39:49.987Z,35.88
2019-04-04T08:42:21.483Z,26.50
2019-04-04T08:44:52.976Z,30.37
2019-04-04T08:47:24.609Z,27.35
2019-04-04T08:49:55.848Z,22.93
2019-04-04T08:52:27.109Z,27.25
2019-04-04T08:54:58.428Z,21.95
2019-04-04T08:57:29.791Z,30.30
2019-04-04T09:00:01.102Z,25.37
2019-04-04T09:02:34.916Z,25.05
2019-04-04T09:05:12.393Z,21.68
2019-04-04T09:07:40.038Z,28.38
2019-04-04T09:10:11.594Z,32.55
2019-04-04T09:12:42.991Z,21.85
2019-04-04T09:15:16.418Z,21.82
2019-04-04T09:17:49.452Z,28.42
2019-04-04T09:20:21.854Z,30.25
2019-04-04T09:22:53.181Z,25.70
2019-04-04T09:25:24.599Z,24.12
2019-04-04T09:27:56.387Z,23.32
2019-04-04T09:30:27.965Z,30.15
2019-04-04T09:32:59.295Z,27.62
2019-04-04T09:35:30.759Z,31.77
2019-04-04T09:38:02.720Z,27.85
2019-04-04T09:40:34.053Z,24.75
2019-04-04T09:43:05.328Z,29.90
2019-04-04T09:45:36.742Z,28.73
2019-04-04T09:48:08.048Z,26.02
2019-04-04T09:50:39.688Z,31.55
2019-04-04T09:53:11.077Z,24.37
2019-04-04T09:55:42.377Z,27.17
2019-04-04T09:58:14.546Z,24.80
2019-04-04T10:00:47.230Z,31.77
2019-04-04T10:03:18.673Z,31.62
2019-04-04T10:05:50.151Z,26.23
2019-04-04T10:08:22.051Z,26.87
2019-04-04T10:10:56.483Z,30.55
2019-04-04T10:13:27.852Z,25.88
2019-04-04T10:16:00.569Z,27.82
2019-04-04T10:18:31.975Z,24.23
2019-04-04T10:21:11.669Z,25.82
2019-04-04T10:23:36.332Z,24.65
2019-04-04T10:26:09.146Z,28.75
2019-04-04T10:28:40.579Z,25.68
2019-04-04T10:31:12.392Z,25.17
2019-04-04T10:33:43.677Z,21.77
2019-04-04T10:36:14.989Z,28.62
2019-04-04T10:38:46.192Z,21.82
2019-04-04T10:41:17.714Z,22.73
2019-04-04T10:43:49.095Z,24.47
2019-04-04T10:46:20.797Z,24.20
2019-04-04T10:48:52.127Z,27.32
2019-04-04T10:51:23.639Z,23.80
2019-04-04T10:53:55.111Z,28.23
2019-04-04T11:22:39.820Z,30.08
2019-04-04T11:44:22.810Z,21.33
2019-04-04T11:46:54.153Z,23.75
2019-04-04T11:49:25.369Z,23.40
2019-04-04T11:51:56.752Z,26.87
2019-04-04T11:54:28.325Z,30.52
2019-04-04T11:56:59.573Z,23.45
2019-04-04T11:59:31.149Z,24.40
2019-04-04T12:02:04.472Z,26.15
2019-04-04T12:04:35.986Z,26.12
2019-04-04T12:07:07.328Z,32.25
2019-04-04T12:09:39.116Z,29.70
2019-04-04T12:12:10.379Z,24.65
2019-04-04T12:14:41.799Z,25.25
2019-04-04T12:17:13.221Z,26.50
2019-04-04T12:19:45.315Z,26.50
2019-04-04T12:22:16.683Z,25.97
2019-04-04T12:24:48.054Z,25.48
2019-04-04T12:27:22.089Z,25.37
2019-04-04T12:29:53.358Z,24.60
2019-04-04T12:32:25.720Z,23.05
2019-04-04T12:34:57.362Z,25.52
2019-04-04T12:37:28.672Z,20.75
2019-04-04T12:39:59.974Z,26.05
2019-04-04T12:42:32.272Z,29.98
2019-04-04T12:45:05.896Z,22.60
2019-04-04T12:47:38.131Z,22.35
2019-04-04T12:50:09.684Z,21.37
2019-04-04T12:52:42.757Z,23.57
2019-04-04T12:55:14.327Z,29.63
2019-04-04T12:57:47.271Z,27.70
2019-04-04T13:00:18.876Z,28.83
2019-04-04T13:02:51.695Z,31.15
2019-04-04T13:05:22.977Z,25.52
2019-04-04T13:07:54.295Z,24.80
2019-04-04T13:10:32.986Z,25.85
2019-04-04T13:13:02.688Z,27.40
2019-04-04T13:15:34.184Z,22.42
2019-04-04T13:18:05.664Z,21.70
2019-04-04T13:20:37.061Z,20.12
2019-04-04T13:23:08.463Z,26.95
2019-04-04T13:25:39.832Z,28.67
2019-04-04T13:28:13.020Z,25.30
2019-04-04T13:30:44.557Z,22.98
2019-04-04T13:33:15.960Z,31.82
2019-04-04T13:35:48.182Z,23.73
2019-04-04T13:38:19.473Z,22.15
2019-04-04T13:40:50.845Z,23.12
2019-04-04T13:43:22.563Z,23.30
2019-04-04T13:45:55.475Z,22.37
2019-04-04T13:48:26.947Z,30.15
2019-04-04T13:50:58.326Z,18.95
2019-04-04T13:53:29.737Z,22.75
2019-04-04T13:56:01.150Z,22.37
2019-04-04T13:58:32.422Z,19.75
2019-04-04T14:01:03.770Z,24.95
2019-04-04T14:03:35.252Z,21.60
2019-04-04T14:06:06.754Z,23.90
2019-04-04T14:08:40.117Z,33.18
2019-04-04T14:11:11.257Z,19.85
2019-04-04T14:13:43.072Z,23.92
2019-04-04T14:16:14.296Z,27.60
2019-04-04T14:18:45.857Z,24.45
2019-04-04T14:21:17.204Z,24.37
2019-04-04T14:23:51.946Z,28.80
2019-04-04T14:26:21.683Z,19.15
2019-04-04T14:28:54.192Z,24.37
2019-04-04T14:31:25.593Z,27.90
2019-04-04T14:33:57.372Z,24.65
2019-04-04T14:36:28.783Z,25.88
2019-04-04T14:39:00.138Z,25.32
2019-04-04T14:41:31.924Z,23.10
2019-04-04T14:44:03.320Z,22.90
2019-04-04T14:46:34.771Z,29.20
2019-04-04T14:49:06.150Z,25.82
2019-04-04T14:51:40.203Z,24.43
2019-04-04T14:54:11.678Z,27.98
2019-04-04T14:56:43.210Z,24.92
2019-04-04T14:59:14.787Z,27.00
2019-04-04T15:01:46.238Z,26.07
2019-04-04T15:04:19.300Z,29.65
2019-04-04T15:06:50.798Z,31.80
2019-04-04T15:09:22.113Z,19.82
2019-04-04T15:11:53.504Z,27.13
2019-04-04T15:14:25.356Z,28.55
2019-04-04T15:16:57.220Z,20.45
2019-04-04T15:19:30.839Z,23.07
2019-04-04T15:22:03.797Z,23.75
2019-04-04T15:24:35.650Z,21.10
2019-04-04T15:27:07.014Z,28.57
2019-04-04T15:29:38.612Z,27.65
2019-04-04T15:32:09.951Z,30.17
2019-04-04T15:34:41.473Z,24.95
2019-04-04T15:37:12.958Z,26.37
2019-04-04T15:39:44.563Z,20.35
2019-04-04T15:42:16.046Z,25.15
2019-04-04T15:44:47.416Z,24.07
2019-04-04T15:47:19.038Z,23.20
2019-04-04T15:49:50.412Z,26.02
2019-04-04T15:52:21.718Z,23.00
2019-04-04T15:54:53.209Z,25.05
2019-04-04T15:57:24.727Z,28.50
2019-04-04T15:59:56.238Z,27.75
2019-04-04T16:02:27.517Z,31.23
2019-04-04T16:04:59.021Z,21.87
2019-04-04T16:07:30.660Z,24.45
2019-04-04T16:10:01.972Z,30.60
2019-04-04T16:12:33.363Z,30.72
2019-04-04T16:15:05.011Z,25.32
2019-04-04T16:17:36.395Z,33.85
2019-04-04T16:20:09.391Z,27.95
2019-04-04T16:22:44.729Z,37.38
2019-04-04T16:25:16.045Z,52.93
2019-04-04T16:27:47.334Z,46.88
2019-04-04T16:30:18.788Z,38.33
2019-04-04T16:32:50.067Z,40.63
2019-04-04T16:35:22.026Z,31.02
2019-04-04T16:37:54.353Z,42.40
2019-04-04T16:40:25.583Z,33.18
2019-04-04T16:42:57.152Z,34.48
2019-04-04T16:45:28.485Z,26.55
2019-04-04T16:47:59.861Z,25.30
2019-04-04T16:50:31.329Z,33.30
2019-04-04T16:53:03.672Z,42.30
2019-04-04T16:55:35.484Z,28.80
2019-04-04T16:58:09.506Z,35.17
2019-04-04T17:00:43.333Z,34.20
2019-04-04T17:03:14.748Z,29.18
2019-04-04T17:05:53.265Z,29.25
2019-04-04T17:08:21.964Z,35.00
2019-04-04T17:10:55.078Z,33.23
2019-04-04T17:13:29.662Z,28.12
2019-04-04T17:16:01.262Z,31.73
2019-04-04T17:18:34.518Z,39.83
2019-04-04T17:21:07.076Z,38.28
2019-04-04T17:23:40.373Z,32.38
2019-04-04T17:26:12.213Z,34.55
2019-04-04T17:28:44.661Z,33.13
2019-04-04T17:31:15.977Z,34.25
2019-04-04T17:33:47.344Z,30.60
2019-04-04T17:36:21.235Z,25.97
2019-04-04T17:38:54.829Z,35.05
2019-04-04T17:41:25.497Z,30.60
2019-04-04T17:43:56.897Z,31.62
2019-04-04T17:46:29.805Z,35.38
2019-04-04T17:49:02.209Z,28.92
2019-04-04T17:51:34.447Z,26.57
2019-04-04T17:54:07.110Z,33.88
2019-04-04T17:56:41.221Z,30.45
2019-04-04T17:59:12.801Z,33.60
2019-04-04T18:01:44.356Z,31.60
2019-04-04T18:04:15.998Z,40.98
2019-04-04T18:06:47.427Z,36.10
2019-04-04T18:09:30.947Z,70.65
2019-04-04T18:11:52.781Z,84.58
2019-04-04T18:14:24.184Z,68.83
2019-04-04T18:16:55.831Z,87.80
2019-04-04T18:19:27.368Z,68.80
2019-04-04T18:21:59.081Z,85.92
2019-04-04T18:24:30.419Z,62.58
2019-04-04T18:27:01.784Z,65.85
2019-04-04T18:29:33.296Z,78.12
2019-04-04T18:32:04.800Z,57.27
2019-04-04T18:34:36.270Z,52.13
2019-04-04T18:37:07.984Z,49.83
2019-04-04T18:39:39.376Z,53.48
2019-04-04T18:42:10.811Z,57.85
2019-04-04T18:44:42.526Z,48.40
2019-04-04T18:47:13.907Z,42.43
2019-04-04T18:49:45.312Z,40.67
2019-04-04T18:52:16.744Z,43.25
2019-04-04T18:54:48.139Z,37.88
2019-04-04T18:57:19.348Z,43.40
2019-04-04T18:59:50.655Z,35.98
2019-04-04T19:02:22.068Z,37.33
2019-04-04T19:04:53.386Z,43.90
2019-04-04T19:07:24.731Z,37.70
2019-04-04T19:09:56.160Z,42.80
2019-04-04T19:12:28.102Z,39.40
2019-04-04T19:14:59.904Z,37.55
2019-04-04T19:17:35.825Z,37.38
2019-04-04T19:20:10.186Z,46.75
2019-04-04T19:22:46.676Z,30.75
2019-04-04T19:25:18.664Z,37.15
2019-04-04T19:27:50.500Z,32.60
2019-04-04T19:30:22.076Z,38.08
2019-04-04T19:32:53.564Z,34.88
2019-04-04T19:35:24.983Z,38.13
2019-04-04T19:38:00.411Z,48.13
2019-04-04T19:40:30.412Z,31.30
2019-04-04T19:43:01.777Z,33.45
2019-04-04T19:45:34.508Z,38.63
2019-04-04T19:48:08.747Z,34.67
2019-04-04T19:50:43.886Z,31.48
2019-04-04T19:53:16.264Z,32.30
2019-04-04T19:55:47.610Z,35.28
2019-04-04T19:58:19.111Z,40.83
2019-04-04T20:00:50.586Z,32.67
2019-04-04T20:03:22.197Z,35.73
2019-04-04T20:05:53.518Z,33.50
2019-04-04T20:08:28.135Z,35.05
2019-04-04T20:11:02.450Z,36.75
2019-04-04T20:13:34.542Z,37.30
2019-04-04T20:16:05.821Z,31.10
2019-04-04T20:18:41.358Z,38.67
2019-04-04T20:21:14.868Z,31.05
2019-04-04T20:23:46.221Z,30.00
2019-04-04T20:26:18.657Z,30.97
2019-04-04T20:28:51.318Z,29.55
2019-04-04T20:31:22.596Z,35.33
2019-04-04T20:34:01.417Z,31.30
2019-04-04T20:36:27.059Z,37.70
2019-04-04T21:16:04.614Z,31.40
2019-04-04T21:18:36.496Z,34.08
2019-04-04T21:21:07.925Z,31.60
2019-04-04T22:23:47.915Z,31.02
2019-04-04T22:26:19.218Z,30.52
2019-04-04T22:28:50.931Z,30.37
2019-04-04T22:31:22.441Z,29.60
2019-04-04T22:33:54.073Z,29.75
2019-04-04T22:36:26.421Z,33.33
2019-04-04T22:38:57.996Z,30.68
2019-04-04T22:41:29.384Z,29.35
2019-04-04T22:44:03.748Z,34.83
2019-04-04T22:46:34.583Z,25.20
2019-04-04T22:49:06.090Z,30.68
2019-04-04T22:51:37.702Z,33.95
2019-04-04T22:54:09.184Z,26.97
2019-04-04T22:56:40.649Z,31.97
2019-04-04T22:59:12.445Z,30.75
2019-04-04T23:01:43.757Z,28.05
2019-04-04T23:04:15.393Z,33.28
2019-04-04T23:06:46.874Z,33.58
2019-04-04T23:09:18.542Z,29.07
2019-04-04T23:11:50.132Z,31.50
2019-04-04T23:14:21.946Z,29.35
2019-04-04T23:16:53.251Z,29.25
